sensor_id;sensor_type;location;lat;lon;timestamp;P1;durP1;ratioP1;P2;durP2;ratioP2
19199;SDS011;9732;52.498;5.408;2023-04-25T00:00:07;0.20;;;0.20;;
19199;SDS011;9732;52.498;5.408;2023-04-25T00:02:35;0.30;;;0.30;;
19199;SDS011;9732;52.498;5.408;2023-04-25T00:05:02;0.30;;;0.30;;
19199;SDS011;9732;52.498;5.408;2023-04-25T00:07:31;0.30;;;0.30;;
19199;SDS011;9732;52.498;5.408;2023-04-25T00:09:58;0.30;;;0.30;;
19199;SDS011;9732;52.498;5.408;2023-04-25T00:12:25;0.30;;;0.30;;
19199;SDS011;9732;52.498;5.408;2023-04-25T00:14:53;0.30;;;0.30;;
19199;SDS011;9732;52.498;5.408;2023-04-25T00:17:21;0.30;;;0.30;;
19199;SDS011;9732;52.498;5.408;2023-04-25T00:19:49;0.30;;;0.30;;
19199;SDS011;9732;52.498;5.408;2023-04-25T00:22:16;0.40;;;0.40;;
19199;SDS011;9732;52.498;5.408;2023-04-25T00:24:44;0.30;;;0.30;;
19199;SDS011;9732;52.498;5.408;2023-04-25T00:27:11;0.30;;;0.30;;
19199;SDS011;9732;52.498;5.408;2023-04-25T00:29:38;0.30;;;0.30;;
19199;SDS011;9732;52.498;5.408;2023-04-25T00:32:04;0.40;;;0.40;;
19199;SDS011;9732;52.498;5.408;2023-04-25T00:34:31;0.30;;;0.30;;
19199;SDS011;9732;52.498;5.408;2023-04-25T00:36:58;0.30;;;0.30;;
19199;SDS011;9732;52.498;5.408;2023-04-25T00:39:26;0.30;;;0.30;;
19199;SDS011;9732;52.498;5.408;2023-04-25T00:41:55;0.30;;;0.30;;
19199;SDS011;9732;52.498;5.408;2023-04-25T00:44:21;0.30;;;0.30;;
19199;SDS011;9732;52.498;5.408;2023-04-25T00:46:50;0.30;;;0.30;;
19199;SDS011;9732;52.498;5.408;2023-04-25T00:49:17;0.30;;;0.30;;
19199;SDS011;9732;52.498;5.408;2023-04-25T00:51:44;0.30;;;0.30;;
19199;SDS011;9732;52.498;5.408;2023-04-25T00:54:10;0.30;;;0.30;;
19199;SDS011;9732;52.498;5.408;2023-04-25T00:56:38;0.40;;;0.40;;
19199;SDS011;9732;52.498;5.408;2023-04-25T00:59:06;0.37;;;0.37;;
19199;SDS011;9732;52.498;5.408;2023-04-25T01:01:34;0.30;;;0.30;;
19199;SDS011;9732;52.498;5.408;2023-04-25T01:04:02;0.40;;;0.40;;
19199;SDS011;9732;52.498;5.408;2023-04-25T01:06:29;0.30;;;0.30;;
19199;SDS011;9732;52.498;5.408;2023-04-25T01:08:57;0.30;;;0.30;;
19199;SDS011;9732;52.498;5.408;2023-04-25T01:11:25;0.30;;;0.30;;
19199;SDS011;9732;52.498;5.408;2023-04-25T01:13:52;0.30;;;0.30;;
19199;SDS011;9732;52.498;5.408;2023-04-25T01:16:20;0.30;;;0.30;;
19199;SDS011;9732;52.498;5.408;2023-04-25T01:18:48;0.30;;;0.30;;
19199;SDS011;9732;52.498;5.408;2023-04-25T01:21:18;0.30;;;0.30;;
19199;SDS011;9732;52.498;5.408;2023-04-25T01:23:45;0.30;;;0.30;;
19199;SDS011;9732;52.498;5.408;2023-04-25T01:26:13;0.30;;;0.30;;
19199;SDS011;9732;52.498;5.408;2023-04-25T01:28:40;0.30;;;0.30;;
19199;SDS011;9732;52.498;5.408;2023-04-25T01:31:07;0.30;;;0.30;;
19199;SDS011;9732;52.498;5.408;2023-04-25T01:33:34;0.30;;;0.30;;
19199;SDS011;9732;52.498;5.408;2023-04-25T01:36:01;0.30;;;0.30;;
19199;SDS011;9732;52.498;5.408;2023-04-25T01:38:30;0.30;;;0.30;;
19199;SDS011;9732;52.498;5.408;2023-04-25T01:40:57;0.30;;;0.30;;
19199;SDS011;9732;52.498;5.408;2023-04-25T01:43:24;0.30;;;0.30;;
19199;SDS011;9732;52.498;5.408;2023-04-25T01:45:51;0.30;;;0.30;;
19199;SDS011;9732;52.498;5.408;2023-04-25T01:48:18;0.30;;;0.30;;
19199;SDS011;9732;52.498;5.408;2023-04-25T01:50:45;0.40;;;0.40;;
19199;SDS011;9732;52.498;5.408;2023-04-25T01:53:12;0.30;;;0.30;;
19199;SDS011;9732;52.498;5.408;2023-04-25T01:55:41;0.30;;;0.30;;
19199;SDS011;9732;52.498;5.408;2023-04-25T01:58:08;0.30;;;0.30;;
19199;SDS011;9732;52.498;5.408;2023-04-25T02:00:37;0.30;;;0.30;;
19199;SDS011;9732;52.498;5.408;2023-04-25T02:03:05;0.30;;;0.30;;
19199;SDS011;9732;52.498;5.408;2023-04-25T02:05:35;0.37;;;0.37;;
19199;SDS011;9732;52.498;5.408;2023-04-25T02:08:04;0.40;;;0.40;;
19199;SDS011;9732;52.498;5.408;2023-04-25T02:10:31;0.30;;;0.30;;
19199;SDS011;9732;52.498;5.408;2023-04-25T02:13:00;0.30;;;0.30;;
19199;SDS011;9732;52.498;5.408;2023-04-25T02:15:26;0.30;;;0.30;;
19199;SDS011;9732;52.498;5.408;2023-04-25T02:17:53;0.33;;;0.33;;
19199;SDS011;9732;52.498;5.408;2023-04-25T02:20:20;0.30;;;0.30;;
19199;SDS011;9732;52.498;5.408;2023-04-25T02:22:48;0.30;;;0.30;;
19199;SDS011;9732;52.498;5.408;2023-04-25T02:25:15;0.40;;;0.40;;
19199;SDS011;9732;52.498;5.408;2023-04-25T02:27:42;0.30;;;0.30;;
19199;SDS011;9732;52.498;5.408;2023-04-25T02:30:10;0.30;;;0.30;;
19199;SDS011;9732;52.498;5.408;2023-04-25T02:32:37;0.30;;;0.30;;
19199;SDS011;9732;52.498;5.408;2023-04-25T02:35:04;0.30;;;0.30;;
19199;SDS011;9732;52.498;5.408;2023-04-25T02:37:32;0.30;;;0.30;;
19199;SDS011;9732;52.498;5.408;2023-04-25T02:39:59;0.30;;;0.30;;
19199;SDS011;9732;52.498;5.408;2023-04-25T02:42:27;0.30;;;0.30;;
19199;SDS011;9732;52.498;5.408;2023-04-25T02:44:53;0.30;;;0.30;;
19199;SDS011;9732;52.498;5.408;2023-04-25T02:47:21;0.30;;;0.30;;
19199;SDS011;9732;52.498;5.408;2023-04-25T02:49:48;0.30;;;0.30;;
19199;SDS011;9732;52.498;5.408;2023-04-25T02:52:15;0.30;;;0.30;;
19199;SDS011;9732;52.498;5.408;2023-04-25T02:54:42;0.30;;;0.30;;
19199;SDS011;9732;52.498;5.408;2023-04-25T02:57:10;0.30;;;0.30;;
19199;SDS011;9732;52.498;5.408;2023-04-25T02:59:38;0.30;;;0.30;;
19199;SDS011;9732;52.498;5.408;2023-04-25T03:02:04;0.30;;;0.30;;
19199;SDS011;9732;52.498;5.408;2023-04-25T03:04:34;0.30;;;0.30;;
19199;SDS011;9732;52.498;5.408;2023-04-25T03:07:01;0.30;;;0.30;;
19199;SDS011;9732;52.498;5.408;2023-04-25T03:09:28;0.30;;;0.30;;
19199;SDS011;9732;52.498;5.408;2023-04-25T03:11:56;0.30;;;0.30;;
19199;SDS011;9732;52.498;5.408;2023-04-25T03:14:23;0.30;;;0.30;;
19199;SDS011;9732;52.498;5.408;2023-04-25T03:16:50;0.30;;;0.30;;
19199;SDS011;9732;52.498;5.408;2023-04-25T03:19:17;0.30;;;0.30;;
19199;SDS011;9732;52.498;5.408;2023-04-25T03:21:46;0.30;;;0.30;;
19199;SDS011;9732;52.498;5.408;2023-04-25T03:24:14;0.30;;;0.30;;
19199;SDS011;9732;52.498;5.408;2023-04-25T03:26:41;0.30;;;0.30;;
19199;SDS011;9732;52.498;5.408;2023-04-25T03:29:08;0.30;;;0.30;;
19199;SDS011;9732;52.498;5.408;2023-04-25T03:31:36;0.30;;;0.30;;
19199;SDS011;9732;52.498;5.408;2023-04-25T03:34:03;0.40;;;0.40;;
19199;SDS011;9732;52.498;5.408;2023-04-25T03:36:30;0.30;;;0.30;;
19199;SDS011;9732;52.498;5.408;2023-04-25T03:38:59;0.30;;;0.30;;
19199;SDS011;9732;52.498;5.408;2023-04-25T03:41:26;0.30;;;0.30;;
19199;SDS011;9732;52.498;5.408;2023-04-25T03:43:54;0.30;;;0.30;;
19199;SDS011;9732;52.498;5.408;2023-04-25T03:46:22;0.30;;;0.30;;
19199;SDS011;9732;52.498;5.408;2023-04-25T03:48:49;0.30;;;0.30;;
19199;SDS011;9732;52.498;5.408;2023-04-25T03:51:16;0.30;;;0.30;;
19199;SDS011;9732;52.498;5.408;2023-04-25T03:53:43;0.30;;;0.30;;
19199;SDS011;9732;52.498;5.408;2023-04-25T03:56:12;0.30;;;0.30;;
19199;SDS011;9732;52.498;5.408;2023-04-25T03:58:38;0.30;;;0.30;;
19199;SDS011;9732;52.498;5.408;2023-04-25T04:01:06;0.30;;;0.30;;
19199;SDS011;9732;52.498;5.408;2023-04-25T04:03:33;0.40;;;0.40;;
19199;SDS011;9732;52.498;5.408;2023-04-25T04:06:00;0.40;;;0.40;;
19199;SDS011;9732;52.498;5.408;2023-04-25T04:08:29;0.30;;;0.30;;
19199;SDS011;9732;52.498;5.408;2023-04-25T04:10:56;0.30;;;0.30;;
19199;SDS011;9732;52.498;5.408;2023-04-25T04:13:25;0.30;;;0.30;;
19199;SDS011;9732;52.498;5.408;2023-04-25T04:15:53;0.30;;;0.30;;
19199;SDS011;9732;52.498;5.408;2023-04-25T04:18:20;0.30;;;0.30;;
19199;SDS011;9732;52.498;5.408;2023-04-25T04:20:48;0.30;;;0.30;;
19199;SDS011;9732;52.498;5.408;2023-04-25T04:23:16;0.30;;;0.30;;
19199;SDS011;9732;52.498;5.408;2023-04-25T04:25:43;0.30;;;0.30;;
19199;SDS011;9732;52.498;5.408;2023-04-25T04:28:10;0.30;;;0.30;;
19199;SDS011;9732;52.498;5.408;2023-04-25T04:30:39;0.30;;;0.30;;
19199;SDS011;9732;52.498;5.408;2023-04-25T04:33:07;0.30;;;0.30;;
19199;SDS011;9732;52.498;5.408;2023-04-25T04:35:34;0.30;;;0.30;;
19199;SDS011;9732;52.498;5.408;2023-04-25T04:38:01;0.30;;;0.30;;
19199;SDS011;9732;52.498;5.408;2023-04-25T04:40:29;0.30;;;0.30;;
19199;SDS011;9732;52.498;5.408;2023-04-25T04:42:57;0.30;;;0.30;;
19199;SDS011;9732;52.498;5.408;2023-04-25T04:45:24;0.30;;;0.30;;
19199;SDS011;9732;52.498;5.408;2023-04-25T04:47:55;0.30;;;0.30;;
19199;SDS011;9732;52.498;5.408;2023-04-25T04:50:22;0.30;;;0.30;;
19199;SDS011;9732;52.498;5.408;2023-04-25T04:52:49;0.40;;;0.40;;
19199;SDS011;9732;52.498;5.408;2023-04-25T04:55:16;0.30;;;0.30;;
19199;SDS011;9732;52.498;5.408;2023-04-25T04:57:44;0.30;;;0.30;;
19199;SDS011;9732;52.498;5.408;2023-04-25T05:00:12;0.30;;;0.30;;
19199;SDS011;9732;52.498;5.408;2023-04-25T05:02:41;0.30;;;0.30;;
19199;SDS011;9732;52.498;5.408;2023-04-25T05:05:10;0.30;;;0.30;;
19199;SDS011;9732;52.498;5.408;2023-04-25T05:07:37;0.30;;;0.30;;
19199;SDS011;9732;52.498;5.408;2023-04-25T05:10:06;0.40;;;0.40;;
19199;SDS011;9732;52.498;5.408;2023-04-25T05:12:33;0.30;;;0.30;;
19199;SDS011;9732;52.498;5.408;2023-04-25T05:15:01;0.30;;;0.30;;
19199;SDS011;9732;52.498;5.408;2023-04-25T05:17:29;0.30;;;0.30;;
19199;SDS011;9732;52.498;5.408;2023-04-25T05:19:56;0.30;;;0.30;;
19199;SDS011;9732;52.498;5.408;2023-04-25T05:22:24;0.33;;;0.33;;
19199;SDS011;9732;52.498;5.408;2023-04-25T05:24:52;0.30;;;0.30;;
19199;SDS011;9732;52.498;5.408;2023-04-25T05:27:19;0.40;;;0.40;;
19199;SDS011;9732;52.498;5.408;2023-04-25T05:29:47;0.30;;;0.30;;
19199;SDS011;9732;52.498;5.408;2023-04-25T05:32:14;0.30;;;0.30;;
19199;SDS011;9732;52.498;5.408;2023-04-25T05:34:41;0.30;;;0.30;;
19199;SDS011;9732;52.498;5.408;2023-04-25T05:37:08;0.30;;;0.30;;
19199;SDS011;9732;52.498;5.408;2023-04-25T05:39:37;0.30;;;0.30;;
19199;SDS011;9732;52.498;5.408;2023-04-25T05:42:03;0.40;;;0.40;;
19199;SDS011;9732;52.498;5.408;2023-04-25T05:44:30;0.30;;;0.30;;
19199;SDS011;9732;52.498;5.408;2023-04-25T05:46:58;0.30;;;0.30;;
19199;SDS011;9732;52.498;5.408;2023-04-25T05:49:28;0.30;;;0.30;;
19199;SDS011;9732;52.498;5.408;2023-04-25T05:51:55;0.30;;;0.30;;
19199;SDS011;9732;52.498;5.408;2023-04-25T05:54:23;0.40;;;0.40;;
19199;SDS011;9732;52.498;5.408;2023-04-25T05:56:52;0.30;;;0.30;;
19199;SDS011;9732;52.498;5.408;2023-04-25T05:59:19;0.30;;;0.30;;
19199;SDS011;9732;52.498;5.408;2023-04-25T06:01:49;0.30;;;0.30;;
19199;SDS011;9732;52.498;5.408;2023-04-25T06:04:16;0.37;;;0.37;;
19199;SDS011;9732;52.498;5.408;2023-04-25T06:06:44;0.30;;;0.30;;
19199;SDS011;9732;52.498;5.408;2023-04-25T06:09:11;0.30;;;0.30;;
19199;SDS011;9732;52.498;5.408;2023-04-25T06:11:38;0.30;;;0.30;;
19199;SDS011;9732;52.498;5.408;2023-04-25T06:14:06;0.30;;;0.30;;
19199;SDS011;9732;52.498;5.408;2023-04-25T06:16:34;0.30;;;0.30;;
19199;SDS011;9732;52.498;5.408;2023-04-25T06:19:01;0.30;;;0.30;;
19199;SDS011;9732;52.498;5.408;2023-04-25T06:21:29;0.30;;;0.30;;
19199;SDS011;9732;52.498;5.408;2023-04-25T06:23:56;0.30;;;0.30;;
19199;SDS011;9732;52.498;5.408;2023-04-25T06:26:23;0.30;;;0.30;;
19199;SDS011;9732;52.498;5.408;2023-04-25T06:28:50;0.30;;;0.30;;
19199;SDS011;9732;52.498;5.408;2023-04-25T06:31:18;0.30;;;0.30;;
19199;SDS011;9732;52.498;5.408;2023-04-25T06:33:45;0.30;;;0.30;;
19199;SDS011;9732;52.498;5.408;2023-04-25T06:36:14;0.30;;;0.30;;
19199;SDS011;9732;52.498;5.408;2023-04-25T06:38:41;0.30;;;0.30;;
19199;SDS011;9732;52.498;5.408;2023-04-25T06:41:08;0.40;;;0.40;;
19199;SDS011;9732;52.498;5.408;2023-04-25T06:43:36;0.20;;;0.20;;
19199;SDS011;9732;52.498;5.408;2023-04-25T06:46:03;0.30;;;0.30;;
19199;SDS011;9732;52.498;5.408;2023-04-25T06:48:32;0.30;;;0.30;;
19199;SDS011;9732;52.498;5.408;2023-04-25T06:50:59;0.30;;;0.30;;
19199;SDS011;9732;52.498;5.408;2023-04-25T06:53:25;0.30;;;0.30;;
19199;SDS011;9732;52.498;5.408;2023-04-25T06:55:52;0.30;;;0.30;;
19199;SDS011;9732;52.498;5.408;2023-04-25T06:58:20;0.30;;;0.30;;
19199;SDS011;9732;52.498;5.408;2023-04-25T07:00:47;0.30;;;0.30;;
19199;SDS011;9732;52.498;5.408;2023-04-25T07:03:14;0.30;;;0.30;;
19199;SDS011;9732;52.498;5.408;2023-04-25T07:05:45;0.30;;;0.30;;
19199;SDS011;9732;52.498;5.408;2023-04-25T07:08:12;0.30;;;0.30;;
19199;SDS011;9732;52.498;5.408;2023-04-25T07:10:39;0.30;;;0.30;;
19199;SDS011;9732;52.498;5.408;2023-04-25T07:13:07;0.30;;;0.30;;
19199;SDS011;9732;52.498;5.408;2023-04-25T07:15:34;0.30;;;0.30;;
19199;SDS011;9732;52.498;5.408;2023-04-25T07:18:01;0.30;;;0.30;;
19199;SDS011;9732;52.498;5.408;2023-04-25T07:20:29;0.30;;;0.30;;
19199;SDS011;9732;52.498;5.408;2023-04-25T07:22:57;0.30;;;0.30;;
19199;SDS011;9732;52.498;5.408;2023-04-25T07:25:24;0.30;;;0.30;;
19199;SDS011;9732;52.498;5.408;2023-04-25T07:27:52;0.40;;;0.40;;
19199;SDS011;9732;52.498;5.408;2023-04-25T07:30:18;0.30;;;0.30;;
19199;SDS011;9732;52.498;5.408;2023-04-25T07:32:45;0.30;;;0.30;;
19199;SDS011;9732;52.498;5.408;2023-04-25T07:35:14;0.30;;;0.30;;
19199;SDS011;9732;52.498;5.408;2023-04-25T07:37:41;0.30;;;0.30;;
19199;SDS011;9732;52.498;5.408;2023-04-25T07:40:15;0.30;;;0.30;;
19199;SDS011;9732;52.498;5.408;2023-04-25T07:42:42;0.30;;;0.30;;
19199;SDS011;9732;52.498;5.408;2023-04-25T07:45:10;0.30;;;0.30;;
19199;SDS011;9732;52.498;5.408;2023-04-25T07:47:37;0.30;;;0.30;;
19199;SDS011;9732;52.498;5.408;2023-04-25T07:50:04;0.30;;;0.30;;
19199;SDS011;9732;52.498;5.408;2023-04-25T07:52:33;0.30;;;0.30;;
19199;SDS011;9732;52.498;5.408;2023-04-25T07:55:01;0.30;;;0.30;;
19199;SDS011;9732;52.498;5.408;2023-04-25T07:57:29;0.40;;;0.40;;
19199;SDS011;9732;52.498;5.408;2023-04-25T07:59:57;0.30;;;0.30;;
19199;SDS011;9732;52.498;5.408;2023-04-25T08:02:23;0.30;;;0.30;;
19199;SDS011;9732;52.498;5.408;2023-04-25T08:04:53;0.30;;;0.30;;
19199;SDS011;9732;52.498;5.408;2023-04-25T08:07:20;0.30;;;0.30;;
19199;SDS011;9732;52.498;5.408;2023-04-25T08:09:47;0.30;;;0.30;;
19199;SDS011;9732;52.498;5.408;2023-04-25T08:12:14;0.30;;;0.30;;
19199;SDS011;9732;52.498;5.408;2023-04-25T08:14:43;0.30;;;0.30;;
19199;SDS011;9732;52.498;5.408;2023-04-25T08:17:10;0.20;;;0.20;;
19199;SDS011;9732;52.498;5.408;2023-04-25T08:19:37;0.30;;;0.30;;
19199;SDS011;9732;52.498;5.408;2023-04-25T08:22:05;0.30;;;0.30;;
19199;SDS011;9732;52.498;5.408;2023-04-25T08:24:32;0.27;;;0.27;;
19199;SDS011;9732;52.498;5.408;2023-04-25T08:26:59;0.30;;;0.30;;
19199;SDS011;9732;52.498;5.408;2023-04-25T08:29:26;0.27;;;0.27;;
19199;SDS011;9732;52.498;5.408;2023-04-25T08:31:54;0.30;;;0.30;;
19199;SDS011;9732;52.498;5.408;2023-04-25T08:34:21;0.30;;;0.30;;
19199;SDS011;9732;52.498;5.408;2023-04-25T08:36:48;0.30;;;0.30;;
19199;SDS011;9732;52.498;5.408;2023-04-25T08:39:17;0.30;;;0.30;;
19199;SDS011;9732;52.498;5.408;2023-04-25T08:41:44;0.30;;;0.30;;
19199;SDS011;9732;52.498;5.408;2023-04-25T08:44:11;0.30;;;0.30;;
19199;SDS011;9732;52.498;5.408;2023-04-25T08:46:40;0.30;;;0.30;;
19199;SDS011;9732;52.498;5.408;2023-04-25T08:49:09;0.30;;;0.30;;
19199;SDS011;9732;52.498;5.408;2023-04-25T08:51:44;0.30;;;0.30;;
19199;SDS011;9732;52.498;5.408;2023-04-25T08:54:13;0.30;;;0.30;;
19199;SDS011;9732;52.498;5.408;2023-04-25T08:56:41;0.30;;;0.30;;
19199;SDS011;9732;52.498;5.408;2023-04-25T08:59:12;0.30;;;0.30;;
19199;SDS011;9732;52.498;5.408;2023-04-25T09:01:39;0.30;;;0.30;;
19199;SDS011;9732;52.498;5.408;2023-04-25T09:04:08;0.30;;;0.30;;
19199;SDS011;9732;52.498;5.408;2023-04-25T09:06:35;0.30;;;0.30;;
19199;SDS011;9732;52.498;5.408;2023-04-25T09:09:03;0.30;;;0.30;;
19199;SDS011;9732;52.498;5.408;2023-04-25T09:11:31;0.30;;;0.30;;
19199;SDS011;9732;52.498;5.408;2023-04-25T09:14:17;0.20;;;0.20;;
19199;SDS011;9732;52.498;5.408;2023-04-25T09:16:59;0.30;;;0.30;;
19199;SDS011;9732;52.498;5.408;2023-04-25T09:19:29;0.30;;;0.30;;
19199;SDS011;9732;52.498;5.408;2023-04-25T09:21:57;0.30;;;0.30;;
19199;SDS011;9732;52.498;5.408;2023-04-25T09:24:32;0.30;;;0.30;;
19199;SDS011;9732;52.498;5.408;2023-04-25T09:27:02;0.30;;;0.30;;
19199;SDS011;9732;52.498;5.408;2023-04-25T09:29:32;0.20;;;0.20;;
19199;SDS011;9732;52.498;5.408;2023-04-25T09:32:14;0.30;;;0.30;;
19199;SDS011;9732;52.498;5.408;2023-04-25T09:34:46;0.20;;;0.20;;
19199;SDS011;9732;52.498;5.408;2023-04-25T09:37:17;0.30;;;0.30;;
19199;SDS011;9732;52.498;5.408;2023-04-25T09:39:46;0.30;;;0.30;;
19199;SDS011;9732;52.498;5.408;2023-04-25T09:42:15;0.20;;;0.20;;
19199;SDS011;9732;52.498;5.408;2023-04-25T09:44:44;0.20;;;0.20;;
19199;SDS011;9732;52.498;5.408;2023-04-25T09:47:13;0.30;;;0.30;;
19199;SDS011;9732;52.498;5.408;2023-04-25T09:49:42;0.20;;;0.20;;
19199;SDS011;9732;52.498;5.408;2023-04-25T09:52:13;0.30;;;0.30;;
19199;SDS011;9732;52.498;5.408;2023-04-25T09:54:42;0.20;;;0.20;;
19199;SDS011;9732;52.498;5.408;2023-04-25T09:57:11;0.30;;;0.30;;
19199;SDS011;9732;52.498;5.408;2023-04-25T09:59:39;0.20;;;0.20;;
19199;SDS011;9732;52.498;5.408;2023-04-25T10:02:14;0.20;;;0.20;;
19199;SDS011;9732;52.498;5.408;2023-04-25T10:04:44;0.20;;;0.20;;
19199;SDS011;9732;52.498;5.408;2023-04-25T10:07:18;0.20;;;0.20;;
19199;SDS011;9732;52.498;5.408;2023-04-25T10:09:47;0.20;;;0.20;;
19199;SDS011;9732;52.498;5.408;2023-04-25T10:12:14;0.20;;;0.20;;
19199;SDS011;9732;52.498;5.408;2023-04-25T10:14:45;0.20;;;0.20;;
19199;SDS011;9732;52.498;5.408;2023-04-25T10:17:13;0.20;;;0.20;;
19199;SDS011;9732;52.498;5.408;2023-04-25T10:19:40;0.20;;;0.20;;
19199;SDS011;9732;52.498;5.408;2023-04-25T10:22:08;0.20;;;0.20;;
19199;SDS011;9732;52.498;5.408;2023-04-25T10:24:42;0.20;;;0.20;;
19199;SDS011;9732;52.498;5.408;2023-04-25T10:27:11;0.20;;;0.20;;
19199;SDS011;9732;52.498;5.408;2023-04-25T10:29:39;0.20;;;0.20;;
19199;SDS011;9732;52.498;5.408;2023-04-25T10:32:09;0.20;;;0.20;;
19199;SDS011;9732;52.498;5.408;2023-04-25T10:34:39;0.20;;;0.20;;
19199;SDS011;9732;52.498;5.408;2023-04-25T10:37:08;0.20;;;0.20;;
19199;SDS011;9732;52.498;5.408;2023-04-25T10:39:37;0.20;;;0.20;;
19199;SDS011;9732;52.498;5.408;2023-04-25T10:42:08;0.20;;;0.20;;
19199;SDS011;9732;52.498;5.408;2023-04-25T10:44:36;0.20;;;0.20;;
19199;SDS011;9732;52.498;5.408;2023-04-25T10:47:06;0.20;;;0.20;;
19199;SDS011;9732;52.498;5.408;2023-04-25T10:49:36;0.20;;;0.20;;
19199;SDS011;9732;52.498;5.408;2023-04-25T10:52:11;0.20;;;0.20;;
19199;SDS011;9732;52.498;5.408;2023-04-25T10:54:48;0.20;;;0.20;;
19199;SDS011;9732;52.498;5.408;2023-04-25T10:57:29;0.15;;;0.15;;
19199;SDS011;9732;52.498;5.408;2023-04-25T10:59:59;0.20;;;0.20;;
19199;SDS011;9732;52.498;5.408;2023-04-25T11:02:31;0.10;;;0.10;;
19199;SDS011;9732;52.498;5.408;2023-04-25T11:05:04;0.20;;;0.20;;
19199;SDS011;9732;52.498;5.408;2023-04-25T11:07:37;0.20;;;0.20;;
19199;SDS011;9732;52.498;5.408;2023-04-25T11:10:10;0.20;;;0.20;;
19199;SDS011;9732;52.498;5.408;2023-04-25T11:12:38;0.20;;;0.20;;
19199;SDS011;9732;52.498;5.408;2023-04-25T11:15:06;0.20;;;0.20;;
19199;SDS011;9732;52.498;5.408;2023-04-25T11:17:34;0.20;;;0.20;;
19199;SDS011;9732;52.498;5.408;2023-04-25T11:20:01;0.10;;;0.10;;
19199;SDS011;9732;52.498;5.408;2023-04-25T11:22:36;0.20;;;0.20;;
19199;SDS011;9732;52.498;5.408;2023-04-25T11:25:07;0.20;;;0.20;;
19199;SDS011;9732;52.498;5.408;2023-04-25T11:27:39;0.20;;;0.20;;
19199;SDS011;9732;52.498;5.408;2023-04-25T11:30:16;0.20;;;0.20;;
19199;SDS011;9732;52.498;5.408;2023-04-25T11:32:44;0.20;;;0.20;;
19199;SDS011;9732;52.498;5.408;2023-04-25T11:35:13;0.20;;;0.20;;
19199;SDS011;9732;52.498;5.408;2023-04-25T11:37:40;0.20;;;0.20;;
19199;SDS011;9732;52.498;5.408;2023-04-25T11:40:09;0.20;;;0.20;;
19199;SDS011;9732;52.498;5.408;2023-04-25T11:42:36;0.30;;;0.30;;
19199;SDS011;9732;52.498;5.408;2023-04-25T11:45:08;0.20;;;0.20;;
19199;SDS011;9732;52.498;5.408;2023-04-25T11:47:37;0.30;;;0.30;;
19199;SDS011;9732;52.498;5.408;2023-04-25T11:50:05;0.20;;;0.20;;
19199;SDS011;9732;52.498;5.408;2023-04-25T11:52:39;0.20;;;0.20;;
19199;SDS011;9732;52.498;5.408;2023-04-25T11:55:07;0.20;;;0.20;;
19199;SDS011;9732;52.498;5.408;2023-04-25T11:57:38;0.20;;;0.20;;
19199;SDS011;9732;52.498;5.408;2023-04-25T12:00:10;0.20;;;0.20;;
19199;SDS011;9732;52.498;5.408;2023-04-25T12:02:41;0.20;;;0.20;;
19199;SDS011;9732;52.498;5.408;2023-04-25T12:05:08;0.20;;;0.20;;
19199;SDS011;9732;52.498;5.408;2023-04-25T12:07:36;0.20;;;0.20;;
19199;SDS011;9732;52.498;5.408;2023-04-25T12:10:04;0.20;;;0.20;;
19199;SDS011;9732;52.498;5.408;2023-04-25T12:12:33;0.20;;;0.20;;
19199;SDS011;9732;52.498;5.408;2023-04-25T12:15:09;0.30;;;0.30;;
19199;SDS011;9732;52.498;5.408;2023-04-25T12:17:38;0.20;;;0.20;;
19199;SDS011;9732;52.498;5.408;2023-04-25T12:20:06;0.30;;;0.30;;
19199;SDS011;9732;52.498;5.408;2023-04-25T12:22:35;0.23;;;0.23;;
19199;SDS011;9732;52.498;5.408;2023-04-25T12:25:03;0.30;;;0.30;;
19199;SDS011;9732;52.498;5.408;2023-04-25T12:27:30;0.27;;;0.27;;
19199;SDS011;9732;52.498;5.408;2023-04-25T12:29:59;0.20;;;0.20;;
19199;SDS011;9732;52.498;5.408;2023-04-25T12:32:28;0.20;;;0.20;;
19199;SDS011;9732;52.498;5.408;2023-04-25T12:34:56;0.20;;;0.20;;
19199;SDS011;9732;52.498;5.408;2023-04-25T12:37:24;0.20;;;0.20;;
19199;SDS011;9732;52.498;5.408;2023-04-25T12:39:51;0.20;;;0.20;;
19199;SDS011;9732;52.498;5.408;2023-04-25T12:42:19;0.20;;;0.20;;
19199;SDS011;9732;52.498;5.408;2023-04-25T12:44:46;0.20;;;0.20;;
19199;SDS011;9732;52.498;5.408;2023-04-25T12:47:14;0.20;;;0.20;;
19199;SDS011;9732;52.498;5.408;2023-04-25T12:49:42;0.20;;;0.20;;
19199;SDS011;9732;52.498;5.408;2023-04-25T12:52:09;0.20;;;0.20;;
19199;SDS011;9732;52.498;5.408;2023-04-25T12:54:36;0.20;;;0.20;;
19199;SDS011;9732;52.498;5.408;2023-04-25T12:57:03;0.20;;;0.20;;
19199;SDS011;9732;52.498;5.408;2023-04-25T12:59:30;0.10;;;0.10;;
19199;SDS011;9732;52.498;5.408;2023-04-25T13:01:57;0.20;;;0.20;;
19199;SDS011;9732;52.498;5.408;2023-04-25T13:04:24;0.20;;;0.20;;
19199;SDS011;9732;52.498;5.408;2023-04-25T13:06:53;0.20;;;0.20;;
19199;SDS011;9732;52.498;5.408;2023-04-25T13:09:20;0.20;;;0.20;;
19199;SDS011;9732;52.498;5.408;2023-04-25T13:11:48;0.20;;;0.20;;
19199;SDS011;9732;52.498;5.408;2023-04-25T13:14:15;0.20;;;0.20;;
19199;SDS011;9732;52.498;5.408;2023-04-25T13:16:42;0.10;;;0.10;;
19199;SDS011;9732;52.498;5.408;2023-04-25T13:19:09;0.20;;;0.20;;
19199;SDS011;9732;52.498;5.408;2023-04-25T13:21:37;0.20;;;0.20;;
19199;SDS011;9732;52.498;5.408;2023-04-25T13:24:06;0.10;;;0.10;;
19199;SDS011;9732;52.498;5.408;2023-04-25T13:26:34;0.20;;;0.20;;
19199;SDS011;9732;52.498;5.408;2023-04-25T13:29:03;0.20;;;0.20;;
19199;SDS011;9732;52.498;5.408;2023-04-25T13:31:30;0.20;;;0.20;;
19199;SDS011;9732;52.498;5.408;2023-04-25T13:33:57;0.20;;;0.20;;
19199;SDS011;9732;52.498;5.408;2023-04-25T13:36:24;0.20;;;0.20;;
19199;SDS011;9732;52.498;5.408;2023-04-25T13:38:51;0.20;;;0.20;;
19199;SDS011;9732;52.498;5.408;2023-04-25T13:41:19;0.20;;;0.20;;
19199;SDS011;9732;52.498;5.408;2023-04-25T13:43:47;0.30;;;0.30;;
19199;SDS011;9732;52.498;5.408;2023-04-25T13:46:14;0.30;;;0.30;;
19199;SDS011;9732;52.498;5.408;2023-04-25T13:48:42;0.20;;;0.20;;
19199;SDS011;9732;52.498;5.408;2023-04-25T13:51:12;0.20;;;0.20;;
19199;SDS011;9732;52.498;5.408;2023-04-25T13:53:40;0.20;;;0.20;;
19199;SDS011;9732;52.498;5.408;2023-04-25T13:56:10;0.25;;;0.25;;
19199;SDS011;9732;52.498;5.408;2023-04-25T13:58:39;0.20;;;0.20;;
19199;SDS011;9732;52.498;5.408;2023-04-25T14:01:06;0.20;;;0.20;;
19199;SDS011;9732;52.498;5.408;2023-04-25T14:03:34;0.20;;;0.20;;
19199;SDS011;9732;52.498;5.408;2023-04-25T14:06:01;0.20;;;0.20;;
19199;SDS011;9732;52.498;5.408;2023-04-25T14:08:29;0.20;;;0.20;;
19199;SDS011;9732;52.498;5.408;2023-04-25T14:10:56;0.20;;;0.20;;
19199;SDS011;9732;52.498;5.408;2023-04-25T14:13:23;0.20;;;0.20;;
19199;SDS011;9732;52.498;5.408;2023-04-25T14:15:51;0.20;;;0.20;;
19199;SDS011;9732;52.498;5.408;2023-04-25T14:18:20;0.20;;;0.20;;
19199;SDS011;9732;52.498;5.408;2023-04-25T14:20:48;0.20;;;0.20;;
19199;SDS011;9732;52.498;5.408;2023-04-25T14:23:15;0.20;;;0.20;;
19199;SDS011;9732;52.498;5.408;2023-04-25T14:25:42;0.20;;;0.20;;
19199;SDS011;9732;52.498;5.408;2023-04-25T14:28:09;0.20;;;0.20;;
19199;SDS011;9732;52.498;5.408;2023-04-25T14:30:36;0.20;;;0.20;;
19199;SDS011;9732;52.498;5.408;2023-04-25T14:33:06;0.20;;;0.20;;
19199;SDS011;9732;52.498;5.408;2023-04-25T14:35:32;0.20;;;0.20;;
19199;SDS011;9732;52.498;5.408;2023-04-25T14:38:00;0.20;;;0.20;;
19199;SDS011;9732;52.498;5.408;2023-04-25T14:40:28;0.20;;;0.20;;
19199;SDS011;9732;52.498;5.408;2023-04-25T14:42:55;0.20;;;0.20;;
19199;SDS011;9732;52.498;5.408;2023-04-25T14:45:22;0.20;;;0.20;;
19199;SDS011;9732;52.498;5.408;2023-04-25T14:47:49;0.20;;;0.20;;
19199;SDS011;9732;52.498;5.408;2023-04-25T14:50:19;0.20;;;0.20;;
19199;SDS011;9732;52.498;5.408;2023-04-25T14:52:46;0.30;;;0.30;;
19199;SDS011;9732;52.498;5.408;2023-04-25T14:55:14;0.20;;;0.20;;
19199;SDS011;9732;52.498;5.408;2023-04-25T14:57:41;0.30;;;0.30;;
19199;SDS011;9732;52.498;5.408;2023-04-25T15:00:09;0.30;;;0.30;;
19199;SDS011;9732;52.498;5.408;2023-04-25T15:02:41;0.20;;;0.20;;
19199;SDS011;9732;52.498;5.408;2023-04-25T15:05:08;0.23;;;0.23;;